sensor_id;sensor_type;location;lat;lon;timestamp;pressure;altitude;pressure_sealevel;temperature;humidity
19884;BME280;10104;50.732;10.174;2023-08-17T00:01:44;98160.97;;;21.14;100.00
19884;BME280;10104;50.732;10.174;2023-08-17T00:04:24;98175.97;;;21.27;100.00
19884;BME280;10104;50.732;10.174;2023-08-17T00:07:05;98240.34;;;20.73;100.00
19884;BME280;10104;50.732;10.174;2023-08-17T00:09:46;98281.53;;;20.17;100.00
19884;BME280;10104;50.732;10.174;2023-08-17T00:12:26;98187.31;;;20.40;100.00
19884;BME280;10104;50.732;10.174;2023-08-17T00:15:06;98162.78;;;20.53;100.00
19884;BME280;10104;50.732;10.174;2023-08-17T00:17:47;98134.31;;;20.57;100.00
19884;BME280;10104;50.732;10.174;2023-08-17T00:20:27;98096.94;;;20.78;100.00
19884;BME280;10104;50.732;10.174;2023-08-17T00:23:07;98092.13;;;20.80;100.00
19884;BME280;10104;50.732;10.174;2023-08-17T00:25:48;98087.47;;;20.75;100.00
19884;BME280;10104;50.732;10.174;2023-08-17T00:28:28;98090.22;;;20.80;100.00
19884;BME280;10104;50.732;10.174;2023-08-17T00:31:08;98091.72;;;20.93;100.00
19884;BME280;10104;50.732;10.174;2023-08-17T00:33:48;98079.41;;;20.97;100.00
19884;BME280;10104;50.732;10.174;2023-08-17T00:36:28;98085.53;;;20.92;100.00
19884;BME280;10104;50.732;10.174;2023-08-17T00:39:08;98093.25;;;21.06;100.00
19884;BME280;10104;50.732;10.174;2023-08-17T00:41:48;98073.97;;;21.14;100.00
19884;BME280;10104;50.732;10.174;2023-08-17T00:44:28;98070.63;;;21.07;100.00
19884;BME280;10104;50.732;10.174;2023-08-17T00:47:09;98061.31;;;21.14;100.00
19884;BME280;10104;50.732;10.174;2023-08-17T00:49:49;98074.28;;;21.17;100.00
19884;BME280;10104;50.732;10.174;2023-08-17T00:52:30;98079.13;;;21.15;100.00
19884;BME280;10104;50.732;10.174;2023-08-17T00:55:12;98084.72;;;21.14;100.00
19884;BME280;10104;50.732;10.174;2023-08-17T00:57:53;98084.53;;;20.98;100.00
19884;BME280;10104;50.732;10.174;2023-08-17T01:00:33;98077.78;;;20.96;100.00
19884;BME280;10104;50.732;10.174;2023-08-17T01:03:15;98071.81;;;20.94;100.00
19884;BME280;10104;50.732;10.174;2023-08-17T01:05:56;98072.75;;;20.83;100.00
19884;BME280;10104;50.732;10.174;2023-08-17T01:08:37;98057.19;;;20.85;100.00
19884;BME280;10104;50.732;10.174;2023-08-17T01:11:25;98050.81;;;20.52;100.00
19884;BME280;10104;50.732;10.174;2023-08-17T01:17:13;98065.91;;;20.53;100.00
19884;BME280;10104;50.732;10.174;2023-08-17T01:19:56;98079.91;;;20.55;100.00
19884;BME280;10104;50.732;10.174;2023-08-17T01:22:41;98071.13;;;20.43;100.00
19884;BME280;10104;50.732;10.174;2023-08-17T01:25:23;98045.84;;;20.61;100.00
19884;BME280;10104;50.732;10.174;2023-08-17T01:28:04;98031.19;;;20.74;100.00
19884;BME280;10104;50.732;10.174;2023-08-17T01:30:49;98011.63;;;20.62;100.00
19884;BME280;10104;50.732;10.174;2023-08-17T01:33:37;98009.81;;;20.45;100.00
19884;BME280;10104;50.732;10.174;2023-08-17T01:36:24;98021.56;;;20.23;100.00
19884;BME280;10104;50.732;10.174;2023-08-17T01:39:05;98026.53;;;20.14;100.00
19884;BME280;10104;50.732;10.174;2023-08-17T01:41:47;98033.72;;;20.08;100.00
19884;BME280;10104;50.732;10.174;2023-08-17T01:44:27;98024.81;;;20.25;100.00
19884;BME280;10104;50.732;10.174;2023-08-17T01:47:08;98025.25;;;20.33;100.00
19884;BME280;10104;50.732;10.174;2023-08-17T01:49:49;98031.19;;;20.18;100.00
19884;BME280;10104;50.732;10.174;2023-08-17T01:52:29;98036.31;;;20.37;100.00
19884;BME280;10104;50.732;10.174;2023-08-17T01:55:09;98033.28;;;20.50;100.00
19884;BME280;10104;50.732;10.174;2023-08-17T01:57:50;98032.72;;;20.48;100.00
19884;BME280;10104;50.732;10.174;2023-08-17T02:00:30;98034.97;;;20.56;100.00
19884;BME280;10104;50.732;10.174;2023-08-17T02:03:10;98035.78;;;20.56;100.00
19884;BME280;10104;50.732;10.174;2023-08-17T02:05:51;98035.38;;;20.65;100.00
19884;BME280;10104;50.732;10.174;2023-08-17T02:08:33;98030.63;;;20.72;100.00
19884;BME280;10104;50.732;10.174;2023-08-17T02:11:13;98024.13;;;20.89;100.00
19884;BME280;10104;50.732;10.174;2023-08-17T02:13:54;98013.91;;;20.70;100.00
19884;BME280;10104;50.732;10.174;2023-08-17T02:16:34;98024.19;;;20.73;100.00
19884;BME280;10104;50.732;10.174;2023-08-17T02:19:14;98019.91;;;20.77;100.00
19884;BME280;10104;50.732;10.174;2023-08-17T02:21:55;98011.91;;;20.82;100.00
19884;BME280;10104;50.732;10.174;2023-08-17T02:24:35;98004.88;;;20.81;100.00
19884;BME280;10104;50.732;10.174;2023-08-17T02:27:15;97998.25;;;20.88;100.00
19884;BME280;10104;50.732;10.174;2023-08-17T02:29:55;97997.69;;;20.86;99.90
19884;BME280;10104;50.732;10.174;2023-08-17T02:32:36;97988.53;;;20.87;99.73
19884;BME280;10104;50.732;10.174;2023-08-17T02:35:16;97987.69;;;20.82;99.88
19884;BME280;10104;50.732;10.174;2023-08-17T02:37:56;97991.19;;;20.82;99.45
19884;BME280;10104;50.732;10.174;2023-08-17T02:40:36;97986.31;;;20.79;99.14
19884;BME280;10104;50.732;10.174;2023-08-17T02:43:16;97983.00;;;20.72;99.13
19884;BME280;10104;50.732;10.174;2023-08-17T02:45:56;97989.75;;;20.75;98.58
19884;BME280;10104;50.732;10.174;2023-08-17T02:48:37;97984.88;;;20.72;98.29
19884;BME280;10104;50.732;10.174;2023-08-17T02:51:17;97986.94;;;20.65;98.84
19884;BME280;10104;50.732;10.174;2023-08-17T02:53:57;97980.75;;;20.64;98.42
19884;BME280;10104;50.732;10.174;2023-08-17T02:56:37;97982.50;;;20.53;98.86
19884;BME280;10104;50.732;10.174;2023-08-17T02:59:17;97972.28;;;20.55;98.40
19884;BME280;10104;50.732;10.174;2023-08-17T03:01:57;97971.22;;;20.56;98.18
19884;BME280;10104;50.732;10.174;2023-08-17T03:04:37;97971.56;;;20.43;98.73
19884;BME280;10104;50.732;10.174;2023-08-17T03:07:18;97974.84;;;20.45;98.33
19884;BME280;10104;50.732;10.174;2023-08-17T03:09:58;97979.00;;;20.53;97.73
19884;BME280;10104;50.732;10.174;2023-08-17T03:12:38;97977.34;;;20.52;97.42
19884;BME280;10104;50.732;10.174;2023-08-17T03:15:18;97974.09;;;20.50;97.28
19884;BME280;10104;50.732;10.174;2023-08-17T03:17:59;97979.41;;;20.45;97.72
19884;BME280;10104;50.732;10.174;2023-08-17T03:20:39;97987.19;;;20.41;97.80
19884;BME280;10104;50.732;10.174;2023-08-17T03:23:19;97988.41;;;20.34;98.08
19884;BME280;10104;50.732;10.174;2023-08-17T03:25:59;97989.69;;;20.31;97.85
19884;BME280;10104;50.732;10.174;2023-08-17T03:28:40;97987.44;;;20.23;98.30
19884;BME280;10104;50.732;10.174;2023-08-17T03:31:20;97992.56;;;20.08;99.93
19884;BME280;10104;50.732;10.174;2023-08-17T03:34:01;97996.41;;;20.12;99.11
19884;BME280;10104;50.732;10.174;2023-08-17T03:36:41;97989.38;;;20.28;98.26
19884;BME280;10104;50.732;10.174;2023-08-17T03:39:21;97996.72;;;20.32;97.98
19884;BME280;10104;50.732;10.174;2023-08-17T03:42:01;97988.84;;;20.31;97.76
19884;BME280;10104;50.732;10.174;2023-08-17T03:44:42;97997.69;;;20.26;97.60
19884;BME280;10104;50.732;10.174;2023-08-17T03:47:22;97998.72;;;20.25;97.47
19884;BME280;10104;50.732;10.174;2023-08-17T03:50:02;97998.72;;;20.25;97.10
19884;BME280;10104;50.732;10.174;2023-08-17T03:52:43;98006.31;;;20.28;96.86
19884;BME280;10104;50.732;10.174;2023-08-17T03:55:23;98002.31;;;20.31;96.81
19884;BME280;10104;50.732;10.174;2023-08-17T03:58:03;98007.13;;;20.29;96.71
19884;BME280;10104;50.732;10.174;2023-08-17T04:00:50;98003.66;;;19.95;98.83
19884;BME280;10104;50.732;10.174;2023-08-17T04:03:31;98003.56;;;20.06;97.52
19884;BME280;10104;50.732;10.174;2023-08-17T04:06:11;98006.34;;;20.11;97.16
19884;BME280;10104;50.732;10.174;2023-08-17T04:08:51;98003.16;;;20.14;96.87
19884;BME280;10104;50.732;10.174;2023-08-17T04:11:34;98007.06;;;20.07;96.95
19884;BME280;10104;50.732;10.174;2023-08-17T04:14:15;98013.59;;;20.11;96.57
19884;BME280;10104;50.732;10.174;2023-08-17T04:16:58;98008.78;;;20.13;96.29
19884;BME280;10104;50.732;10.174;2023-08-17T04:19:38;98009.34;;;20.15;96.19
19884;BME280;10104;50.732;10.174;2023-08-17T04:22:18;98004.50;;;20.12;95.97
19884;BME280;10104;50.732;10.174;2023-08-17T04:24:58;98012.28;;;20.13;95.79
19884;BME280;10104;50.732;10.174;2023-08-17T04:27:38;98014.59;;;20.05;95.94
19884;BME280;10104;50.732;10.174;2023-08-17T04:30:19;98011.97;;;20.10;95.48
19884;BME280;10104;50.732;10.174;2023-08-17T04:32:59;98015.25;;;20.12;95.38
19884;BME280;10104;50.732;10.174;2023-08-17T04:35:39;98015.25;;;20.12;95.23
19884;BME280;10104;50.732;10.174;2023-08-17T04:38:19;98021.66;;;20.11;95.15
19884;BME280;10104;50.732;10.174;2023-08-17T04:41:00;98018.16;;;20.10;95.30
19884;BME280;10104;50.732;10.174;2023-08-17T04:43:40;98021.75;;;20.16;95.27
19884;BME280;10104;50.732;10.174;2023-08-17T04:46:20;98027.69;;;20.18;95.35
19884;BME280;10104;50.732;10.174;2023-08-17T04:49:01;98025.59;;;20.03;96.13
19884;BME280;10104;50.732;10.174;2023-08-17T04:51:41;98020.22;;;20.03;95.99
19884;BME280;10104;50.732;10.174;2023-08-17T04:54:21;98025.75;;;19.97;96.72
19884;BME280;10104;50.732;10.174;2023-08-17T04:57:01;98024.19;;;20.01;96.31
19884;BME280;10104;50.732;10.174;2023-08-17T04:59:43;98033.16;;;20.06;96.00
19884;BME280;10104;50.732;10.174;2023-08-17T05:02:23;98024.09;;;20.12;95.92
19884;BME280;10104;50.732;10.174;2023-08-17T05:05:04;98027.53;;;20.08;95.97
19884;BME280;10104;50.732;10.174;2023-08-17T05:07:45;98028.19;;;20.15;95.61
19884;BME280;10104;50.732;10.174;2023-08-17T05:10:25;98031.44;;;20.17;95.25
19884;BME280;10104;50.732;10.174;2023-08-17T05:13:05;98033.38;;;20.22;94.94
19884;BME280;10104;50.732;10.174;2023-08-17T05:15:45;98034.03;;;20.29;94.67
19884;BME280;10104;50.732;10.174;2023-08-17T05:18:26;98040.91;;;20.36;94.46
19884;BME280;10104;50.732;10.174;2023-08-17T05:21:06;98037.06;;;20.49;94.16
19884;BME280;10104;50.732;10.174;2023-08-17T05:23:46;98034.44;;;20.54;94.09
19884;BME280;10104;50.732;10.174;2023-08-17T05:26:26;98037.06;;;20.49;96.06
19884;BME280;10104;50.732;10.174;2023-08-17T05:29:06;98044.03;;;20.50;96.47
19884;BME280;10104;50.732;10.174;2023-08-17T05:31:47;98038.88;;;20.65;95.33
19884;BME280;10104;50.732;10.174;2023-08-17T05:34:27;98044.72;;;20.79;95.23
19884;BME280;10104;50.732;10.174;2023-08-17T05:37:07;98048.53;;;20.83;96.24
19884;BME280;10104;50.732;10.174;2023-08-17T05:39:48;98039.28;;;20.74;97.37
19884;BME280;10104;50.732;10.174;2023-08-17T05:42:28;98041.28;;;20.83;98.06
19884;BME280;10104;50.732;10.174;2023-08-17T05:45:08;98047.72;;;21.04;97.00
19884;BME280;10104;50.732;10.174;2023-08-17T05:47:49;98045.09;;;21.09;97.45
19884;BME280;10104;50.732;10.174;2023-08-17T05:50:29;98041.22;;;21.22;97.14
19884;BME280;10104;50.732;10.174;2023-08-17T05:53:10;98045.66;;;21.33;97.47
19884;BME280;10104;50.732;10.174;2023-08-17T05:55:50;98049.72;;;21.14;97.59
19884;BME280;10104;50.732;10.174;2023-08-17T05:58:30;98049.50;;;21.15;97.25
19884;BME280;10104;50.732;10.174;2023-08-17T06:01:11;98056.81;;;21.42;96.78
19884;BME280;10104;50.732;10.174;2023-08-17T06:03:51;98058.34;;;21.59;95.82
19884;BME280;10104;50.732;10.174;2023-08-17T06:06:32;98060.38;;;21.79;95.11
19884;BME280;10104;50.732;10.174;2023-08-17T06:09:12;98061.53;;;21.83;94.85
19884;BME280;10104;50.732;10.174;2023-08-17T06:11:52;98066.81;;;22.00;94.04
19884;BME280;10104;50.732;10.174;2023-08-17T06:14:33;98068.59;;;21.89;94.42
19884;BME280;10104;50.732;10.174;2023-08-17T06:17:13;98067.38;;;22.02;93.36
19884;BME280;10104;50.732;10.174;2023-08-17T06:19:54;98061.41;;;22.00;92.58
19884;BME280;10104;50.732;10.174;2023-08-17T06:22:34;98066.75;;;21.95;93.53
19884;BME280;10104;50.732;10.174;2023-08-17T06:25:14;98067.78;;;22.15;93.06
19884;BME280;10104;50.732;10.174;2023-08-17T06:27:54;98063.50;;;22.25;92.32
19884;BME280;10104;50.732;10.174;2023-08-17T06:30:35;98067.97;;;22.46;91.76
19884;BME280;10104;50.732;10.174;2023-08-17T06:33:15;98069.22;;;22.70;90.47
19884;BME280;10104;50.732;10.174;2023-08-17T06:35:55;98071.78;;;22.97;88.86
19884;BME280;10104;50.732;10.174;2023-08-17T06:38:35;98070.22;;;23.06;89.37
19884;BME280;10104;50.732;10.174;2023-08-17T06:41:16;98076.91;;;22.93;89.39
19884;BME280;10104;50.732;10.174;2023-08-17T06:43:57;98072.63;;;23.03;88.98
19884;BME280;10104;50.732;10.174;2023-08-17T06:46:37;98076.72;;;23.15;88.71
19884;BME280;10104;50.732;10.174;2023-08-17T06:49:17;98072.94;;;23.16;87.36
19884;BME280;10104;50.732;10.174;2023-08-17T06:51:58;98066.53;;;23.32;87.07
19884;BME280;10104;50.732;10.174;2023-08-17T06:54:38;98078.69;;;23.30;85.11
19884;BME280;10104;50.732;10.174;2023-08-17T06:57:18;98085.38;;;23.12;86.10
19884;BME280;10104;50.732;10.174;2023-08-17T07:00:01;98083.31;;;23.39;85.83
19884;BME280;10104;50.732;10.174;2023-08-17T07:02:45;98090.91;;;23.43;85.49
19884;BME280;10104;50.732;10.174;2023-08-17T07:05:35;98092.22;;;23.40;87.23
19884;BME280;10104;50.732;10.174;2023-08-17T07:08:15;98091.41;;;23.39;88.95
19884;BME280;10104;50.732;10.174;2023-08-17T07:10:57;98084.94;;;23.40;87.32
19884;BME280;10104;50.732;10.174;2023-08-17T07:13:37;98099.34;;;23.61;87.47
19884;BME280;10104;50.732;10.174;2023-08-17T07:16:17;98097.25;;;24.14;83.60
19884;BME280;10104;50.732;10.174;2023-08-17T07:18:57;98091.34;;;24.27;84.18
19884;BME280;10104;50.732;10.174;2023-08-17T07:21:37;98084.28;;;24.21;84.36
19884;BME280;10104;50.732;10.174;2023-08-17T07:24:17;98084.00;;;24.33;84.35
19884;BME280;10104;50.732;10.174;2023-08-17T07:26:58;98091.06;;;24.34;85.05
19884;BME280;10104;50.732;10.174;2023-08-17T07:29:38;98094.31;;;24.31;84.28
19884;BME280;10104;50.732;10.174;2023-08-17T07:32:18;98093.22;;;24.22;83.55
19884;BME280;10104;50.732;10.174;2023-08-17T07:34:59;98081.31;;;24.17;83.65
19884;BME280;10104;50.732;10.174;2023-08-17T07:37:39;98090.50;;;24.16;84.85
19884;BME280;10104;50.732;10.174;2023-08-17T07:40:19;98089.94;;;24.09;83.83
19884;BME280;10104;50.732;10.174;2023-08-17T07:42:59;98090.78;;;24.05;84.43
19884;BME280;10104;50.732;10.174;2023-08-17T07:45:39;98092.41;;;24.06;83.73
19884;BME280;10104;50.732;10.174;2023-08-17T07:48:19;98090.78;;;24.00;84.48
19884;BME280;10104;50.732;10.174;2023-08-17T07:50:59;98096.44;;;24.03;85.73
19884;BME280;10104;50.732;10.174;2023-08-17T07:53:39;98098.94;;;24.30;85.35
19884;BME280;10104;50.732;10.174;2023-08-17T07:56:20;98099.72;;;24.26;84.36
19884;BME280;10104;50.732;10.174;2023-08-17T07:59:00;98097.28;;;24.29;83.06
19884;BME280;10104;50.732;10.174;2023-08-17T08:01:41;98099.19;;;24.29;82.13
19884;BME280;10104;50.732;10.174;2023-08-17T08:04:22;98095.13;;;24.41;83.21
19884;BME280;10104;50.732;10.174;2023-08-17T08:07:02;98089.44;;;24.43;82.90
19884;BME280;10104;50.732;10.174;2023-08-17T08:09:42;98092.69;;;24.25;83.74
19884;BME280;10104;50.732;10.174;2023-08-17T08:12:23;98096.75;;;24.27;83.07
19884;BME280;10104;50.732;10.174;2023-08-17T08:15:03;98101.34;;;24.27;83.83
19884;BME280;10104;50.732;10.174;2023-08-17T08:17:44;98098.09;;;24.40;83.33
19884;BME280;10104;50.732;10.174;2023-08-17T08:20:25;98101.88;;;24.39;82.67
19884;BME280;10104;50.732;10.174;2023-08-17T08:23:05;98109.22;;;24.23;84.65
19884;BME280;10104;50.732;10.174;2023-08-17T08:25:45;98097.84;;;24.36;83.73
19884;BME280;10104;50.732;10.174;2023-08-17T08:28:25;98107.84;;;24.46;82.94
19884;BME280;10104;50.732;10.174;2023-08-17T08:31:06;98114.34;;;24.50;83.37
19884;BME280;10104;50.732;10.174;2023-08-17T08:33:47;98106.75;;;24.42;83.58
19884;BME280;10104;50.732;10.174;2023-08-17T08:36:27;98102.16;;;24.47;83.30
19884;BME280;10104;50.732;10.174;2023-08-17T08:39:07;98111.63;;;24.60;84.10
19884;BME280;10104;50.732;10.174;2023-08-17T08:41:47;98106.47;;;24.53;83.10
19884;BME280;10104;50.732;10.174;2023-08-17T08:44:27;98108.41;;;24.38;83.37
19884;BME280;10104;50.732;10.174;2023-08-17T08:47:08;98106.50;;;24.48;83.80
19884;BME280;10104;50.732;10.174;2023-08-17T08:50:00;98103.53;;;24.50;83.87
19884;BME280;10104;50.732;10.174;2023-08-17T08:52:49;98099.72;;;24.46;83.82
19884;BME280;10104;50.732;10.174;2023-08-17T08:55:37;98108.09;;;24.39;84.82
19884;BME280;10104;50.732;10.174;2023-08-17T08:58:25;98117.34;;;24.43;84.12
19884;BME280;10104;50.732;10.174;2023-08-17T09:01:06;98112.41;;;24.91;83.70
19884;BME280;10104;50.732;10.174;2023-08-17T09:03:48;98114.97;;;25.36;80.49
19884;BME280;10104;50.732;10.174;2023-08-17T09:06:29;98109.16;;;25.63;77.19
19884;BME280;10104;50.732;10.174;2023-08-17T09:09:11;98108.00;;;25.80;77.16
19884;BME280;10104;50.732;10.174;2023-08-17T09:11:54;98104.19;;;25.75;76.84
19884;BME280;10104;50.732;10.174;2023-08-17T09:14:35;98109.22;;;25.97;77.66
19884;BME280;10104;50.732;10.174;2023-08-17T09:17:23;98102.72;;;26.32;74.91
19884;BME280;10104;50.732;10.174;2023-08-17T09:20:04;98101.38;;;26.30;75.48
19884;BME280;10104;50.732;10.174;2023-08-17T09:22:47;98107.06;;;26.33;74.62
19884;BME280;10104;50.732;10.174;2023-08-17T09:25:33;98095.06;;;26.39;72.88
19884;BME280;10104;50.732;10.174;2023-08-17T09:28:18;98105.97;;;26.34;72.70
19884;BME280;10104;50.732;10.174;2023-08-17T09:31:01;98100.81;;;26.33;74.15
19884;BME280;10104;50.732;10.174;2023-08-17T09:33:48;98110.00;;;26.37;73.20
19884;BME280;10104;50.732;10.174;2023-08-17T09:36:29;98107.88;;;26.34;72.18
19884;BME280;10104;50.732;10.174;2023-08-17T09:39:09;98114.88;;;26.01;73.70
19884;BME280;10104;50.732;10.174;2023-08-17T09:41:54;98108.31;;;26.07;75.21
19884;BME280;10104;50.732;10.174;2023-08-17T09:44:35;98103.66;;;25.78;77.51
19884;BME280;10104;50.732;10.174;2023-08-17T09:47:17;98100.84;;;25.89;76.87
19884;BME280;10104;50.732;10.174;2023-08-17T09:49:58;98107.41;;;25.83;77.46
19884;BME280;10104;50.732;10.174;2023-08-17T09:52:38;98098.53;;;25.72;78.64
19884;BME280;10104;50.732;10.174;2023-08-17T09:55:20;98107.31;;;25.98;77.41
19884;BME280;10104;50.732;10.174;2023-08-17T09:58:01;98104.09;;;25.91;76.66
19884;BME280;10104;50.732;10.174;2023-08-17T10:00:45;98112.63;;;26.13;76.77
19884;BME280;10104;50.732;10.174;2023-08-17T10:03:33;98106.31;;;26.28;75.31
19884;BME280;10104;50.732;10.174;2023-08-17T10:06:17;98107.28;;;26.71;73.54
19884;BME280;10104;50.732;10.174;2023-08-17T10:09:06;98102.75;;;26.90;73.14
19884;BME280;10104;50.732;10.174;2023-08-17T10:11:51;98106.09;;;27.06;72.42
19884;BME280;10104;50.732;10.174;2023-08-17T10:14:39;98110.78;;;27.00;72.35
19884;BME280;10104;50.732;10.174;2023-08-17T10:17:26;98110.50;;;27.25;71.07
19884;BME280;10104;50.732;10.174;2023-08-17T10:20:08;98111.50;;;27.77;69.10
19884;BME280;10104;50.732;10.174;2023-08-17T10:22:55;98107.50;;;28.07;67.14
19884;BME280;10104;50.732;10.174;2023-08-17T10:25:37;98113.53;;;27.85;66.84
19884;BME280;10104;50.732;10.174;2023-08-17T10:28:19;98109.22;;;27.18;67.58
19884;BME280;10104;50.732;10.174;2023-08-17T10:31:00;98113.63;;;26.85;70.71
19884;BME280;10104;50.732;10.174;2023-08-17T10:33:41;98115.38;;;26.76;73.17
19884;BME280;10104;50.732;10.174;2023-08-17T10:36:25;98120.53;;;26.77;71.56
19884;BME280;10104;50.732;10.174;2023-08-17T10:39:25;98114.06;;;26.68;71.05
19884;BME280;10104;50.732;10.174;2023-08-17T10:42:09;98108.81;;;26.53;71.92
19884;BME280;10104;50.732;10.174;2023-08-17T10:44:49;98112.50;;;26.62;73.13
19884;BME280;10104;50.732;10.174;2023-08-17T10:47:31;98111.53;;;27.06;70.88
19884;BME280;10104;50.732;10.174;2023-08-17T10:50:24;98108.25;;;27.09;69.91
19884;BME280;10104;50.732;10.174;2023-08-17T10:53:12;98104.78;;;27.27;69.36
19884;BME280;10104;50.732;10.174;2023-08-17T10:55:57;98105.22;;;27.58;68.67
19884;BME280;10104;50.732;10.174;2023-08-17T10:58:37;98100.34;;;28.11;68.14
19884;BME280;10104;50.732;10.174;2023-08-17T11:01:34;98098.16;;;28.13;65.04
19884;BME280;10104;50.732;10.174;2023-08-17T11:04:16;98095.59;;;28.68;65.62
19884;BME280;10104;50.732;10.174;2023-08-17T11:07:01;98092.31;;;28.98;62.37
19884;BME280;10104;50.732;10.174;2023-08-17T11:09:42;98098.38;;;29.09;60.34
19884;BME280;10104;50.732;10.174;2023-08-17T11:12:27;98095.94;;;29.62;60.82
19884;BME280;10104;50.732;10.174;2023-08-17T11:15:08;98098.16;;;30.09;59.62
19884;BME280;10104;50.732;10.174;2023-08-17T11:17:48;98099.00;;;30.19;57.37
19884;BME280;10104;50.732;10.174;2023-08-17T11:20:28;98104.31;;;30.15;58.34
19884;BME280;10104;50.732;10.174;2023-08-17T11:23:09;98099.69;;;30.46;56.09
19884;BME280;10104;50.732;10.174;2023-08-17T11:25:52;98092.69;;;30.85;55.96
19884;BME280;10104;50.732;10.174;2023-08-17T11:28:33;98098.03;;;31.21;54.70
19884;BME280;10104;50.732;10.174;2023-08-17T11:31:21;98098.09;;;31.55;52.17
19884;BME280;10104;50.732;10.174;2023-08-17T11:34:02;98098.59;;;31.57;52.16
19884;BME280;10104;50.732;10.174;2023-08-17T11:36:43;98095.81;;;31.40;52.62
19884;BME280;10104;50.732;10.174;2023-08-17T11:39:23;98095.91;;;31.18;53.07
19884;BME280;10104;50.732;10.174;2023-08-17T11:42:03;98093.97;;;31.10;53.12
19884;BME280;10104;50.732;10.174;2023-08-17T11:44:44;98090.31;;;30.92;53.46
19884;BME280;10104;50.732;10.174;2023-08-17T11:47:24;98086.00;;;31.00;54.21
19884;BME280;10104;50.732;10.174;2023-08-17T11:50:11;98084.03;;;31.31;54.40
19884;BME280;10104;50.732;10.174;2023-08-17T11:53:00;98079.94;;;31.11;56.13
19884;BME280;10104;50.732;10.174;2023-08-17T11:55:41;98080.66;;;30.94;54.02
19884;BME280;10104;50.732;10.174;2023-08-17T11:58:36;98079.22;;;31.28;53.53
19884;BME280;10104;50.732;10.174;2023-08-17T12:01:17;98077.56;;;30.79;55.66
19884;BME280;10104;50.732;10.174;2023-08-17T12:03:57;98072.59;;;30.89;53.17
19884;BME280;10104;50.732;10.174;2023-08-17T12:06:44;98073.38;;;31.21;54.81
19884;BME280;10104;50.732;10.174;2023-08-17T12:09:25;98078.13;;;30.98;57.13
19884;BME280;10104;50.732;10.174;2023-08-17T12:12:06;98074.94;;;30.74;56.93
19884;BME280;10104;50.732;10.174;2023-08-17T12:14:46;98063.28;;;31.39;54.09
19884;BME280;10104;50.732;10.174;2023-08-17T12:17:27;98063.84;;;32.01;54.63
19884;BME280;10104;50.732;10.174;2023-08-17T12:20:07;98051.88;;;32.31;51.76
19884;BME280;10104;50.732;10.174;2023-08-17T12:22:48;98055.22;;;33.01;50.73
19884;BME280;10104;50.732;10.174;2023-08-17T12:25:28;98061.69;;;33.34;50.57
19884;BME280;10104;50.732;10.174;2023-08-17T12:28:08;98054.78;;;32.90;49.85
19884;BME280;10104;50.732;10.174;2023-08-17T12:30:57;98067.56;;;32.13;50.77
19884;BME280;10104;50.732;10.174;2023-08-17T12:33:37;98053.00;;;32.94;49.49
19884;BME280;10104;50.732;10.174;2023-08-17T12:36:17;98056.06;;;33.30;47.50
19884;BME280;10104;50.732;10.174;2023-08-17T12:38:59;98036.69;;;33.77;45.95
19884;BME280;10104;50.732;10.174;2023-08-17T12:41:42;98044.16;;;34.87;46.14
19884;BME280;10104;50.732;10.174;2023-08-17T12:44:22;98025.56;;;34.84;44.28
19884;BME280;10104;50.732;10.174;2023-08-17T12:47:02;98032.34;;;35.48;43.53
19884;BME280;10104;50.732;10.174;2023-08-17T12:49:42;98028.56;;;35.80;42.73
19884;BME280;10104;50.732;10.174;2023-08-17T12:52:23;98029.91;;;35.98;41.31
19884;BME280;10104;50.732;10.174;2023-08-17T12:55:04;98021.06;;;37.11;39.79
19884;BME280;10104;50.732;10.174;2023-08-17T12:57:45;98018.16;;;37.74;39.94
19884;BME280;10104;50.732;10.174;2023-08-17T13:00:25;98021.06;;;37.81;38.73
19884;BME280;10104;50.732;10.174;2023-08-17T13:03:05;98017.31;;;38.73;37.72
19884;BME280;10104;50.732;10.174;2023-08-17T13:05:49;98012.81;;;39.14;37.27
19884;BME280;10104;50.732;10.174;2023-08-17T13:08:29;98011.50;;;39.05;37.29
19884;BME280;10104;50.732;10.174;2023-08-17T13:11:10;98012.19;;;40.11;37.23
19884;BME280;10104;50.732;10.174;2023-08-17T13:13:50;98011.31;;;39.73;36.61
19884;BME280;10104;50.732;10.174;2023-08-17T13:16:30;98004.41;;;39.07;36.97
19884;BME280;10104;50.732;10.174;2023-08-17T13:19:10;98014.34;;;39.64;35.33
19884;BME280;10104;50.732;10.174;2023-08-17T13:21:50;98001.97;;;39.85;36.56
19884;BME280;10104;50.732;10.174;2023-08-17T13:24:31;98010.50;;;39.73;35.36
19884;BME280;10104;50.732;10.174;2023-08-17T13:27:11;98002.53;;;40.75;34.79
19884;BME280;10104;50.732;10.174;2023-08-17T13:29:51;97995.53;;;40.95;34.40
19884;BME280;10104;50.732;10.174;2023-08-17T13:32:31;97991.59;;;40.96;33.63
19884;BME280;10104;50.732;10.174;2023-08-17T13:35:11;97998.00;;;41.04;33.91
19884;BME280;10104;50.732;10.174;2023-08-17T13:37:52;97992.75;;;40.95;33.80
19884;BME280;10104;50.732;10.174;2023-08-17T13:40:34;97986.81;;;41.51;33.42
19884;BME280;10104;50.732;10.174;2023-08-17T13:43:16;97989.50;;;41.44;32.47
19884;BME280;10104;50.732;10.174;2023-08-17T13:45:56;97978.00;;;41.46;32.33
19884;BME280;10104;50.732;10.174;2023-08-17T13:48:36;97977.72;;;41.65;33.22
19884;BME280;10104;50.732;10.174;2023-08-17T13:51:18;97980.19;;;41.08;33.37
19884;BME280;10104;50.732;10.174;2023-08-17T13:53:58;97963.59;;;41.23;33.14
19884;BME280;10104;50.732;10.174;2023-08-17T13:56:38;97977.53;;;41.33;32.65
19884;BME280;10104;50.732;10.174;2023-08-17T13:59:19;97972.25;;;41.10;32.78
19884;BME280;10104;50.732;10.174;2023-08-17T14:01:59;97974.00;;;41.43;33.16
19884;BME280;10104;50.732;10.174;2023-08-17T14:04:39;97966.13;;;41.49;32.23